sensor_id;sensor_type;location;lat;lon;timestamp;pressure;altitude;pressure_sealevel;temperature
68127;BMP180;54931;52.098;21.006;2023-10-09T00:01:44;100958.80;;;1.10
68127;BMP180;54931;52.098;21.006;2023-10-09T00:04:13;100957.40;;;1.10
68127;BMP180;54931;52.098;21.006;2023-10-09T00:06:44;100950.00;;;1.10
68127;BMP180;54931;52.098;21.006;2023-10-09T00:09:11;100953.00;;;1.08
68127;BMP180;54931;52.098;21.006;2023-10-09T00:11:58;100940.40;;;1.00
68127;BMP180;54931;52.098;21.006;2023-10-09T00:14:30;100943.00;;;1.00
68127;BMP180;54931;52.098;21.006;2023-10-09T00:17:01;100940.40;;;0.90
68127;BMP180;54931;52.098;21.006;2023-10-09T00:19:50;100939.80;;;0.86
68127;BMP180;54931;52.098;21.006;2023-10-09T00:22:18;100934.80;;;0.80
68127;BMP180;54931;52.098;21.006;2023-10-09T00:24:58;100937.60;;;0.78
68127;BMP180;54931;52.098;21.006;2023-10-09T00:27:39;100944.40;;;0.70
68127;BMP180;54931;52.098;21.006;2023-10-09T00:30:13;100938.80;;;0.70
68127;BMP180;54931;52.098;21.006;2023-10-09T00:32:46;100934.00;;;0.60
68127;BMP180;54931;52.098;21.006;2023-10-09T00:35:38;100929.00;;;0.60
68127;BMP180;54931;52.098;21.006;2023-10-09T00:38:12;100926.00;;;0.60
68127;BMP180;54931;52.098;21.006;2023-10-09T00:40:53;100916.00;;;0.60
68127;BMP180;54931;52.098;21.006;2023-10-09T00:43:30;100903.00;;;0.62
68127;BMP180;54931;52.098;21.006;2023-10-09T00:46:01;100901.40;;;0.66
68127;BMP180;54931;52.098;21.006;2023-10-09T00:49:00;100907.40;;;0.66
68127;BMP180;54931;52.098;21.006;2023-10-09T00:51:30;100901.60;;;0.64
68127;BMP180;54931;52.098;21.006;2023-10-09T00:54:07;100902.60;;;0.60
68127;BMP180;54931;52.098;21.006;2023-10-09T00:56:42;100896.80;;;0.60
68127;BMP180;54931;52.098;21.006;2023-10-09T00:59:20;100899.20;;;0.60
68127;BMP180;54931;52.098;21.006;2023-10-09T01:01:49;100893.20;;;0.56
68127;BMP180;54931;52.098;21.006;2023-10-09T01:04:31;100893.60;;;0.50
68127;BMP180;54931;52.098;21.006;2023-10-09T01:06:59;100880.80;;;0.50
68127;BMP180;54931;52.098;21.006;2023-10-09T01:09:42;100883.80;;;0.50
68127;BMP180;54931;52.098;21.006;2023-10-09T01:12:12;100876.80;;;0.50
68127;BMP180;54931;52.098;21.006;2023-10-09T01:14:45;100881.00;;;0.50
68127;BMP180;54931;52.098;21.006;2023-10-09T01:17:13;100880.40;;;0.46
68127;BMP180;54931;52.098;21.006;2023-10-09T01:19:56;100873.40;;;0.40
68127;BMP180;54931;52.098;21.006;2023-10-09T01:22:30;100871.00;;;0.40
68127;BMP180;54931;52.098;21.006;2023-10-09T01:24:58;100869.20;;;0.40
68127;BMP180;54931;52.098;21.006;2023-10-09T01:27:25;100872.00;;;0.40
68127;BMP180;54931;52.098;21.006;2023-10-09T01:29:59;100859.00;;;0.40
68127;BMP180;54931;52.098;21.006;2023-10-09T01:32:27;100858.20;;;0.40
68127;BMP180;54931;52.098;21.006;2023-10-09T01:34:55;100857.80;;;0.40
68127;BMP180;54931;52.098;21.006;2023-10-09T01:37:25;100853.40;;;0.40
68127;BMP180;54931;52.098;21.006;2023-10-09T01:39:59;100852.60;;;0.40
68127;BMP180;54931;52.098;21.006;2023-10-09T01:42:47;100853.80;;;0.40
68127;BMP180;54931;52.098;21.006;2023-10-09T01:45:14;100852.20;;;0.40
68127;BMP180;54931;52.098;21.006;2023-10-09T01:47:47;100855.40;;;0.40
68127;BMP180;54931;52.098;21.006;2023-10-09T01:50:24;100858.60;;;0.32
68127;BMP180;54931;52.098;21.006;2023-10-09T01:52:58;100856.40;;;0.34
68127;BMP180;54931;52.098;21.006;2023-10-09T01:55:30;100850.60;;;0.32
68127;BMP180;54931;52.098;21.006;2023-10-09T01:58:07;100856.00;;;0.38
68127;BMP180;54931;52.098;21.006;2023-10-09T02:00:51;100844.00;;;0.40
68127;BMP180;54931;52.098;21.006;2023-10-09T02:03:23;100847.20;;;0.40
68127;BMP180;54931;52.098;21.006;2023-10-09T02:05:51;100842.00;;;0.40
68127;BMP180;54931;52.098;21.006;2023-10-09T02:08:20;100832.00;;;0.50
68127;BMP180;54931;52.098;21.006;2023-10-09T02:10:54;100838.00;;;0.50
68127;BMP180;54931;52.098;21.006;2023-10-09T02:13:24;100840.60;;;0.50
68127;BMP180;54931;52.098;21.006;2023-10-09T02:15:57;100837.40;;;0.56
68127;BMP180;54931;52.098;21.006;2023-10-09T02:18:42;100846.80;;;0.60
68127;BMP180;54931;52.098;21.006;2023-10-09T02:21:22;100848.00;;;0.60
68127;BMP180;54931;52.098;21.006;2023-10-09T02:23:57;100846.40;;;0.60
68127;BMP180;54931;52.098;21.006;2023-10-09T02:26:25;100839.20;;;0.68
68127;BMP180;54931;52.098;21.006;2023-10-09T02:28:55;100834.40;;;0.68
68127;BMP180;54931;52.098;21.006;2023-10-09T02:31:27;100838.00;;;0.70
68127;BMP180;54931;52.098;21.006;2023-10-09T02:34:07;100828.40;;;0.70
68127;BMP180;54931;52.098;21.006;2023-10-09T02:36:38;100832.40;;;0.70
68127;BMP180;54931;52.098;21.006;2023-10-09T02:39:09;100829.60;;;0.72
68127;BMP180;54931;52.098;21.006;2023-10-09T02:41:58;100827.20;;;0.78
68127;BMP180;54931;52.098;21.006;2023-10-09T02:44:28;100822.00;;;0.80
68127;BMP180;54931;52.098;21.006;2023-10-09T02:47:07;100822.40;;;0.80
68127;BMP180;54931;52.098;21.006;2023-10-09T02:49:47;100828.60;;;0.80
68127;BMP180;54931;52.098;21.006;2023-10-09T02:52:18;100826.20;;;0.90
68127;BMP180;54931;52.098;21.006;2023-10-09T02:54:46;100820.80;;;0.92
68127;BMP180;54931;52.098;21.006;2023-10-09T02:57:14;100821.20;;;1.00
68127;BMP180;54931;52.098;21.006;2023-10-09T02:59:51;100815.60;;;1.00
68127;BMP180;54931;52.098;21.006;2023-10-09T03:02:19;100816.00;;;1.04
68127;BMP180;54931;52.098;21.006;2023-10-09T03:04:46;100814.20;;;1.10
68127;BMP180;54931;52.098;21.006;2023-10-09T03:07:14;100812.00;;;1.10
68127;BMP180;54931;52.098;21.006;2023-10-09T03:09:42;100814.40;;;1.14
68127;BMP180;54931;52.098;21.006;2023-10-09T03:12:09;100812.00;;;1.20
68127;BMP180;54931;52.098;21.006;2023-10-09T03:14:40;100811.60;;;1.20
68127;BMP180;54931;52.098;21.006;2023-10-09T03:17:08;100812.80;;;1.20
68127;BMP180;54931;52.098;21.006;2023-10-09T03:19:41;100809.80;;;1.20
68127;BMP180;54931;52.098;21.006;2023-10-09T03:22:10;100801.00;;;1.20
68127;BMP180;54931;52.098;21.006;2023-10-09T03:24:39;100798.20;;;1.20
68127;BMP180;54931;52.098;21.006;2023-10-09T03:27:12;100803.00;;;1.20
68127;BMP180;54931;52.098;21.006;2023-10-09T03:29:41;100808.80;;;1.22
68127;BMP180;54931;52.098;21.006;2023-10-09T03:32:09;100812.20;;;1.24
68127;BMP180;54931;52.098;21.006;2023-10-09T03:34:38;100810.20;;;1.28
68127;BMP180;54931;52.098;21.006;2023-10-09T03:37:06;100811.20;;;1.28
68127;BMP180;54931;52.098;21.006;2023-10-09T03:39:48;100814.20;;;1.30
68127;BMP180;54931;52.098;21.006;2023-10-09T03:42:19;100813.80;;;1.30
68127;BMP180;54931;52.098;21.006;2023-10-09T03:44:48;100804.80;;;1.30
68127;BMP180;54931;52.098;21.006;2023-10-09T03:47:26;100794.20;;;1.30
68127;BMP180;54931;52.098;21.006;2023-10-09T03:49:55;100787.00;;;1.30
68127;BMP180;54931;52.098;21.006;2023-10-09T03:52:23;100787.40;;;1.30
68127;BMP180;54931;52.098;21.006;2023-10-09T03:54:55;100789.60;;;1.40
68127;BMP180;54931;52.098;21.006;2023-10-09T03:57:23;100791.20;;;1.40
68127;BMP180;54931;52.098;21.006;2023-10-09T03:59:53;100787.20;;;1.42
68127;BMP180;54931;52.098;21.006;2023-10-09T04:02:22;100796.60;;;1.50
68127;BMP180;54931;52.098;21.006;2023-10-09T04:04:50;100800.40;;;1.50
68127;BMP180;54931;52.098;21.006;2023-10-09T04:07:18;100796.80;;;1.50
68127;BMP180;54931;52.098;21.006;2023-10-09T04:09:45;100798.40;;;1.60
68127;BMP180;54931;52.098;21.006;2023-10-09T04:12:15;100795.80;;;1.60
68127;BMP180;54931;52.098;21.006;2023-10-09T04:14:52;100793.00;;;1.60
68127;BMP180;54931;52.098;21.006;2023-10-09T04:17:23;100793.40;;;1.60
68127;BMP180;54931;52.098;21.006;2023-10-09T04:19:57;100804.80;;;1.60
68127;BMP180;54931;52.098;21.006;2023-10-09T04:22:43;100799.60;;;1.70
68127;BMP180;54931;52.098;21.006;2023-10-09T04:25:30;100797.40;;;1.70
68127;BMP180;54931;52.098;21.006;2023-10-09T04:28:10;100796.60;;;1.70
68127;BMP180;54931;52.098;21.006;2023-10-09T04:30:49;100790.60;;;1.70
68127;BMP180;54931;52.098;21.006;2023-10-09T04:33:26;100786.40;;;1.70
68127;BMP180;54931;52.098;21.006;2023-10-09T04:36:08;100773.60;;;1.76
68127;BMP180;54931;52.098;21.006;2023-10-09T04:38:43;100775.00;;;1.78
68127;BMP180;54931;52.098;21.006;2023-10-09T04:41:43;100764.20;;;1.80
68127;BMP180;54931;52.098;21.006;2023-10-09T04:44:11;100752.00;;;1.80
68127;BMP180;54931;52.098;21.006;2023-10-09T04:46:51;100756.60;;;1.80
68127;BMP180;54931;52.098;21.006;2023-10-09T04:49:39;100756.20;;;1.80
68127;BMP180;54931;52.098;21.006;2023-10-09T04:52:16;100749.40;;;1.80
68127;BMP180;54931;52.098;21.006;2023-10-09T04:54:57;100754.40;;;1.80
68127;BMP180;54931;52.098;21.006;2023-10-09T04:57:43;100747.40;;;1.80
68127;BMP180;54931;52.098;21.006;2023-10-09T05:00:18;100741.40;;;1.80
68127;BMP180;54931;52.098;21.006;2023-10-09T05:02:55;100732.00;;;1.80
68127;BMP180;54931;52.098;21.006;2023-10-09T05:05:28;100730.20;;;1.80
68127;BMP180;54931;52.098;21.006;2023-10-09T05:08:15;100731.40;;;1.80
68127;BMP180;54931;52.098;21.006;2023-10-09T05:10:52;100734.80;;;1.80
68127;BMP180;54931;52.098;21.006;2023-10-09T05:13:42;100725.80;;;1.80
68127;BMP180;54931;52.098;21.006;2023-10-09T05:16:18;100713.60;;;1.80
68127;BMP180;54931;52.098;21.006;2023-10-09T05:18:48;100708.80;;;1.80
68127;BMP180;54931;52.098;21.006;2023-10-09T05:21:34;100705.60;;;1.80
68127;BMP180;54931;52.098;21.006;2023-10-09T05:24:12;100702.40;;;1.80
68127;BMP180;54931;52.098;21.006;2023-10-09T05:26:46;100693.20;;;1.80
68127;BMP180;54931;52.098;21.006;2023-10-09T05:29:22;100690.40;;;1.80
68127;BMP180;54931;52.098;21.006;2023-10-09T05:32:15;100691.20;;;1.80
68127;BMP180;54931;52.098;21.006;2023-10-09T05:34:45;100690.20;;;1.86
68127;BMP180;54931;52.098;21.006;2023-10-09T05:37:30;100699.80;;;1.90
68127;BMP180;54931;52.098;21.006;2023-10-09T05:40:11;100701.00;;;1.90
68127;BMP180;54931;52.098;21.006;2023-10-09T05:42:46;100696.40;;;1.92
68127;BMP180;54931;52.098;21.006;2023-10-09T05:45:26;100691.20;;;2.00
68127;BMP180;54931;52.098;21.006;2023-10-09T05:48:17;100691.40;;;2.00
68127;BMP180;54931;52.098;21.006;2023-10-09T05:50:45;100690.60;;;2.08
68127;BMP180;54931;52.098;21.006;2023-10-09T05:53:22;100694.80;;;2.10
68127;BMP180;54931;52.098;21.006;2023-10-09T05:56:10;100690.00;;;2.16
68127;BMP180;54931;52.098;21.006;2023-10-09T05:59:15;100685.40;;;2.20
68127;BMP180;54931;52.098;21.006;2023-10-09T06:02:01;100680.60;;;2.20
68127;BMP180;54931;52.098;21.006;2023-10-09T06:04:29;100678.20;;;2.30
68127;BMP180;54931;52.098;21.006;2023-10-09T06:07:15;100674.60;;;2.30
68127;BMP180;54931;52.098;21.006;2023-10-09T06:09:51;100674.40;;;2.40
68127;BMP180;54931;52.098;21.006;2023-10-09T06:12:23;100671.40;;;2.40
68127;BMP180;54931;52.098;21.006;2023-10-09T06:15:01;100675.60;;;2.50
68127;BMP180;54931;52.098;21.006;2023-10-09T06:17:48;100678.80;;;2.50
68127;BMP180;54931;52.098;21.006;2023-10-09T06:20:19;100676.60;;;2.60
68127;BMP180;54931;52.098;21.006;2023-10-09T06:23:06;100685.00;;;2.60
68127;BMP180;54931;52.098;21.006;2023-10-09T06:25:51;100683.80;;;2.70
68127;BMP180;54931;52.098;21.006;2023-10-09T06:28:18;100679.60;;;2.80
68127;BMP180;54931;52.098;21.006;2023-10-09T06:31:00;100681.80;;;2.80
68127;BMP180;54931;52.098;21.006;2023-10-09T06:33:50;100685.80;;;2.90
68127;BMP180;54931;52.098;21.006;2023-10-09T06:36:44;100690.00;;;3.00
68127;BMP180;54931;52.098;21.006;2023-10-09T06:39:20;100692.60;;;3.10
68127;BMP180;54931;52.098;21.006;2023-10-09T06:42:06;100688.40;;;3.16
68127;BMP180;54931;52.098;21.006;2023-10-09T06:45:06;100684.00;;;3.20
68127;BMP180;54931;52.098;21.006;2023-10-09T06:47:49;100683.00;;;3.30
68127;BMP180;54931;52.098;21.006;2023-10-09T06:50:23;100678.80;;;3.30
68127;BMP180;54931;52.098;21.006;2023-10-09T06:53:14;100678.60;;;3.30
68127;BMP180;54931;52.098;21.006;2023-10-09T06:55:42;100677.40;;;3.30
68127;BMP180;54931;52.098;21.006;2023-10-09T06:58:20;100682.20;;;3.40
68127;BMP180;54931;52.098;21.006;2023-10-09T07:00:55;100682.80;;;3.50
68127;BMP180;54931;52.098;21.006;2023-10-09T07:03:26;100676.80;;;3.56
68127;BMP180;54931;52.098;21.006;2023-10-09T07:06:09;100684.60;;;3.60
68127;BMP180;54931;52.098;21.006;2023-10-09T07:08:56;100684.80;;;3.70
68127;BMP180;54931;52.098;21.006;2023-10-09T07:11:38;100686.60;;;3.78
68127;BMP180;54931;52.098;21.006;2023-10-09T07:14:16;100680.80;;;3.88
68127;BMP180;54931;52.098;21.006;2023-10-09T07:17:04;100687.60;;;4.00
68127;BMP180;54931;52.098;21.006;2023-10-09T07:19:44;100686.20;;;4.10
68127;BMP180;54931;52.098;21.006;2023-10-09T07:22:15;100685.60;;;4.24
68127;BMP180;54931;52.098;21.006;2023-10-09T07:24:53;100693.00;;;4.40
68127;BMP180;54931;52.098;21.006;2023-10-09T07:27:30;100697.40;;;4.58
68127;BMP180;54931;52.098;21.006;2023-10-09T07:30:18;100699.00;;;4.80
68127;BMP180;54931;52.098;21.006;2023-10-09T07:33:07;100702.60;;;5.20
68127;BMP180;54931;52.098;21.006;2023-10-09T07:35:45;100703.80;;;5.64
68127;BMP180;54931;52.098;21.006;2023-10-09T07:38:25;100705.40;;;6.16
68127;BMP180;54931;52.098;21.006;2023-10-09T07:40:56;100707.40;;;6.50
68127;BMP180;54931;52.098;21.006;2023-10-09T07:43:38;100695.80;;;6.70
68127;BMP180;54931;52.098;21.006;2023-10-09T07:46:14;100691.00;;;6.80
68127;BMP180;54931;52.098;21.006;2023-10-09T07:49:11;100693.80;;;7.10
68127;BMP180;54931;52.098;21.006;2023-10-09T07:51:52;100695.20;;;7.30
68127;BMP180;54931;52.098;21.006;2023-10-09T07:54:23;100698.40;;;7.40
68127;BMP180;54931;52.098;21.006;2023-10-09T07:57:00;100701.60;;;7.50
68127;BMP180;54931;52.098;21.006;2023-10-09T07:59:44;100712.00;;;7.62
68127;BMP180;54931;52.098;21.006;2023-10-09T08:02:50;100706.80;;;7.80
68127;BMP180;54931;52.098;21.006;2023-10-09T08:05:28;100708.60;;;7.90
68127;BMP180;54931;52.098;21.006;2023-10-09T08:08:11;100697.40;;;8.10
68127;BMP180;54931;52.098;21.006;2023-10-09T08:10:57;100695.60;;;8.34
68127;BMP180;54931;52.098;21.006;2023-10-09T08:13:44;100701.60;;;8.54
68127;BMP180;54931;52.098;21.006;2023-10-09T08:16:17;100700.60;;;8.90
68127;BMP180;54931;52.098;21.006;2023-10-09T08:18:49;100692.80;;;9.10
68127;BMP180;54931;52.098;21.006;2023-10-09T08:21:19;100692.00;;;9.22
68127;BMP180;54931;52.098;21.006;2023-10-09T08:24:09;100692.80;;;9.24
68127;BMP180;54931;52.098;21.006;2023-10-09T08:26:57;100690.40;;;9.24
68127;BMP180;54931;52.098;21.006;2023-10-09T08:29:45;100681.80;;;9.36
68127;BMP180;54931;52.098;21.006;2023-10-09T08:32:14;100683.00;;;9.50
68127;BMP180;54931;52.098;21.006;2023-10-09T08:35:06;100683.20;;;9.50
68127;BMP180;54931;52.098;21.006;2023-10-09T08:37:52;100677.40;;;9.46
68127;BMP180;54931;52.098;21.006;2023-10-09T08:40:20;100670.40;;;9.40
68127;BMP180;54931;52.098;21.006;2023-10-09T08:42:53;100665.20;;;9.40
68127;BMP180;54931;52.098;21.006;2023-10-09T08:45:25;100670.00;;;9.50
68127;BMP180;54931;52.098;21.006;2023-10-09T08:47:55;100675.20;;;9.60
68127;BMP180;54931;52.098;21.006;2023-10-09T08:50:24;100684.60;;;9.80
68127;BMP180;54931;52.098;21.006;2023-10-09T08:52:57;100682.80;;;9.80
68127;BMP180;54931;52.098;21.006;2023-10-09T08:55:26;100674.60;;;9.70
68127;BMP180;54931;52.098;21.006;2023-10-09T08:57:55;100666.60;;;9.82
68127;BMP180;54931;52.098;21.006;2023-10-09T09:00:26;100672.80;;;10.00
68127;BMP180;54931;52.098;21.006;2023-10-09T09:03:04;100668.40;;;10.10
68127;BMP180;54931;52.098;21.006;2023-10-09T09:05:34;100658.00;;;10.10
68127;BMP180;54931;52.098;21.006;2023-10-09T09:08:25;100654.20;;;10.10
68127;BMP180;54931;52.098;21.006;2023-10-09T09:11:02;100654.20;;;10.30
68127;BMP180;54931;52.098;21.006;2023-10-09T09:13:41;100654.60;;;10.50
68127;BMP180;54931;52.098;21.006;2023-10-09T09:16:18;100652.00;;;10.70
68127;BMP180;54931;52.098;21.006;2023-10-09T09:18:56;100648.40;;;10.90
68127;BMP180;54931;52.098;21.006;2023-10-09T09:21:42;100648.00;;;10.90
68127;BMP180;54931;52.098;21.006;2023-10-09T09:24:13;100644.40;;;11.10
68127;BMP180;54931;52.098;21.006;2023-10-09T09:26:52;100633.00;;;11.20
68127;BMP180;54931;52.098;21.006;2023-10-09T09:32:09;100630.80;;;11.50
68127;BMP180;54931;52.098;21.006;2023-10-09T09:34:53;100621.00;;;11.40
68127;BMP180;54931;52.098;21.006;2023-10-09T09:37:33;100617.20;;;11.30
68127;BMP180;54931;52.098;21.006;2023-10-09T09:40:10;100622.00;;;11.20
68127;BMP180;54931;52.098;21.006;2023-10-09T09:43:03;100623.80;;;11.14
68127;BMP180;54931;52.098;21.006;2023-10-09T09:45:38;100622.60;;;11.20
68127;BMP180;54931;52.098;21.006;2023-10-09T09:48:15;100613.60;;;11.26
68127;BMP180;54931;52.098;21.006;2023-10-09T09:50:44;100613.80;;;11.30
68127;BMP180;54931;52.098;21.006;2023-10-09T09:53:13;100609.40;;;11.20
68127;BMP180;54931;52.098;21.006;2023-10-09T09:55:53;100614.00;;;11.10
68127;BMP180;54931;52.098;21.006;2023-10-09T09:58:26;100604.60;;;11.00
68127;BMP180;54931;52.098;21.006;2023-10-09T10:01:12;100592.60;;;11.00
68127;BMP180;54931;52.098;21.006;2023-10-09T10:03:53;100592.40;;;11.04
68127;BMP180;54931;52.098;21.006;2023-10-09T10:06:25;100587.80;;;11.10
68127;BMP180;54931;52.098;21.006;2023-10-09T10:08:55;100588.40;;;11.20
68127;BMP180;54931;52.098;21.006;2023-10-09T10:11:46;100583.00;;;11.24
68127;BMP180;54931;52.098;21.006;2023-10-09T10:14:14;100576.40;;;11.36
68127;BMP180;54931;52.098;21.006;2023-10-09T10:17:06;100576.60;;;11.40
68127;BMP180;54931;52.098;21.006;2023-10-09T10:20:06;100576.80;;;11.40
68127;BMP180;54931;52.098;21.006;2023-10-09T10:22:47;100570.40;;;11.40
68127;BMP180;54931;52.098;21.006;2023-10-09T10:28:20;100569.60;;;11.30
68127;BMP180;54931;52.098;21.006;2023-10-09T10:31:06;100569.20;;;11.24
68127;BMP180;54931;52.098;21.006;2023-10-09T10:36:23;100558.00;;;11.10
68127;BMP180;54931;52.098;21.006;2023-10-09T10:39:07;100561.80;;;11.00
68127;BMP180;54931;52.098;21.006;2023-10-09T10:41:38;100554.00;;;11.00
68127;BMP180;54931;52.098;21.006;2023-10-09T10:44:33;100551.80;;;10.90
68127;BMP180;54931;52.098;21.006;2023-10-09T10:47:09;100552.00;;;10.80
68127;BMP180;54931;52.098;21.006;2023-10-09T10:49:55;100548.60;;;10.72
68127;BMP180;54931;52.098;21.006;2023-10-09T10:52:27;100540.00;;;10.74
68127;BMP180;54931;52.098;21.006;2023-10-09T10:55:16;100537.20;;;10.76
68127;BMP180;54931;52.098;21.006;2023-10-09T10:57:59;100534.60;;;10.70
68127;BMP180;54931;52.098;21.006;2023-10-09T11:00:38;100531.00;;;10.70
68127;BMP180;54931;52.098;21.006;2023-10-09T11:03:26;100529.80;;;10.68
68127;BMP180;54931;52.098;21.006;2023-10-09T11:06:03;100529.40;;;10.64
68127;BMP180;54931;52.098;21.006;2023-10-09T11:08:49;100529.00;;;10.60
68127;BMP180;54931;52.098;21.006;2023-10-09T11:11:24;100527.20;;;10.56
68127;BMP180;54931;52.098;21.006;2023-10-09T11:14:11;100535.40;;;10.50
68127;BMP180;54931;52.098;21.006;2023-10-09T11:16:42;100535.60;;;10.36
68127;BMP180;54931;52.098;21.006;2023-10-09T11:19:12;100532.60;;;10.20
68127;BMP180;54931;52.098;21.006;2023-10-09T11:22:02;100528.60;;;10.10
68127;BMP180;54931;52.098;21.006;2023-10-09T11:24:36;100530.40;;;10.00
68127;BMP180;54931;52.098;21.006;2023-10-09T11:27:06;100525.40;;;10.00
68127;BMP180;54931;52.098;21.006;2023-10-09T11:29:36;100518.00;;;9.90
68127;BMP180;54931;52.098;21.006;2023-10-09T11:32:19;100515.60;;;9.90
68127;BMP180;54931;52.098;21.006;2023-10-09T11:35:10;100525.40;;;9.80
68127;BMP180;54931;52.098;21.006;2023-10-09T11:37:38;100523.20;;;9.70
68127;BMP180;54931;52.098;21.006;2023-10-09T11:40:31;100525.00;;;9.58
68127;BMP180;54931;52.098;21.006;2023-10-09T11:43:18;100519.80;;;9.40
68127;BMP180;54931;52.098;21.006;2023-10-09T11:45:50;100511.60;;;9.40
68127;BMP180;54931;52.098;21.006;2023-10-09T11:48:24;100509.80;;;9.40
68127;BMP180;54931;52.098;21.006;2023-10-09T11:51:15;100506.40;;;9.34
68127;BMP180;54931;52.098;21.006;2023-10-09T11:53:46;100502.20;;;9.30
68127;BMP180;54931;52.098;21.006;2023-10-09T11:56:17;100506.00;;;9.30
68127;BMP180;54931;52.098;21.006;2023-10-09T11:58:49;100503.40;;;9.30
68127;BMP180;54931;52.098;21.006;2023-10-09T12:01:20;100497.40;;;9.26
68127;BMP180;54931;52.098;21.006;2023-10-09T12:03:50;100491.20;;;9.30
68127;BMP180;54931;52.098;21.006;2023-10-09T12:06:21;100493.60;;;9.36
68127;BMP180;54931;52.098;21.006;2023-10-09T12:08:51;100491.20;;;9.40
68127;BMP180;54931;52.098;21.006;2023-10-09T12:11:21;100492.40;;;9.42
68127;BMP180;54931;52.098;21.006;2023-10-09T12:13:56;100491.40;;;9.46
68127;BMP180;54931;52.098;21.006;2023-10-09T12:16:25;100492.00;;;9.46
68127;BMP180;54931;52.098;21.006;2023-10-09T12:18:55;100483.00;;;9.48
68127;BMP180;54931;52.098;21.006;2023-10-09T12:21:24;100484.00;;;9.50
68127;BMP180;54931;52.098;21.006;2023-10-09T12:23:55;100489.60;;;9.42
68127;BMP180;54931;52.098;21.006;2023-10-09T12:26:26;100483.40;;;9.40
68127;BMP180;54931;52.098;21.006;2023-10-09T12:28:54;100477.40;;;9.40
68127;BMP180;54931;52.098;21.006;2023-10-09T12:31:21;100471.40;;;9.30
68127;BMP180;54931;52.098;21.006;2023-10-09T12:33:51;100465.80;;;9.30
68127;BMP180;54931;52.098;21.006;2023-10-09T12:36:19;100462.00;;;9.30
68127;BMP180;54931;52.098;21.006;2023-10-09T12:38:48;100470.00;;;9.30
68127;BMP180;54931;52.098;21.006;2023-10-09T12:41:21;100475.20;;;9.40
68127;BMP180;54931;52.098;21.006;2023-10-09T12:43:55;100484.00;;;9.40
68127;BMP180;54931;52.098;21.006;2023-10-09T12:46:25;100485.80;;;9.40
68127;BMP180;54931;52.098;21.006;2023-10-09T12:48:53;100485.40;;;9.40
68127;BMP180;54931;52.098;21.006;2023-10-09T12:51:24;100475.60;;;9.30
68127;BMP180;54931;52.098;21.006;2023-10-09T12:53:58;100478.40;;;9.20
68127;BMP180;54931;52.098;21.006;2023-10-09T12:56:28;100478.40;;;9.10
68127;BMP180;54931;52.098;21.006;2023-10-09T12:59:05;100475.80;;;9.10
68127;BMP180;54931;52.098;21.006;2023-10-09T13:01:35;100476.60;;;9.04
68127;BMP180;54931;52.098;21.006;2023-10-09T13:04:13;100474.60;;;9.00
68127;BMP180;54931;52.098;21.006;2023-10-09T13:06:44;100475.80;;;9.00
68127;BMP180;54931;52.098;21.006;2023-10-09T13:09:15;100478.00;;;9.00
68127;BMP180;54931;52.098;21.006;2023-10-09T13:11:43;100474.60;;;9.00
68127;BMP180;54931;52.098;21.006;2023-10-09T13:14:11;100475.40;;;8.90
68127;BMP180;54931;52.098;21.006;2023-10-09T13:16:49;100478.00;;;8.90
68127;BMP180;54931;52.098;21.006;2023-10-09T13:19:17;100472.20;;;8.90
68127;BMP180;54931;52.098;21.006;2023-10-09T13:21:45;100458.60;;;8.90
68127;BMP180;54931;52.098;21.006;2023-10-09T13:24:13;100458.60;;;8.90
68127;BMP180;54931;52.098;21.006;2023-10-09T13:26:44;100458.40;;;8.90
68127;BMP180;54931;52.098;21.006;2023-10-09T13:29:13;100455.20;;;8.90
68127;BMP180;54931;52.098;21.006;2023-10-09T13:31:41;100448.20;;;8.90
68127;BMP180;54931;52.098;21.006;2023-10-09T13:34:13;100451.20;;;8.98
68127;BMP180;54931;52.098;21.006;2023-10-09T13:36:44;100448.40;;;9.00
68127;BMP180;54931;52.098;21.006;2023-10-09T13:39:21;100449.00;;;9.00
68127;BMP180;54931;52.098;21.006;2023-10-09T13:41:57;100438.40;;;9.00
68127;BMP180;54931;52.098;21.006;2023-10-09T13:44:31;100426.60;;;9.00
68127;BMP180;54931;52.098;21.006;2023-10-09T13:47:01;100424.80;;;9.00
68127;BMP180;54931;52.098;21.006;2023-10-09T13:49:32;100423.40;;;9.00
68127;BMP180;54931;52.098;21.006;2023-10-09T13:52:02;100423.20;;;9.00
68127;BMP180;54931;52.098;21.006;2023-10-09T13:54:31;100419.80;;;9.00
68127;BMP180;54931;52.098;21.006;2023-10-09T13:57:03;100418.20;;;9.00
68127;BMP180;54931;52.098;21.006;2023-10-09T13:59:35;100420.20;;;9.00
68127;BMP180;54931;52.098;21.006;2023-10-09T14:02:03;100415.40;;;9.00
68127;BMP180;54931;52.098;21.006;2023-10-09T14:04:47;100416.20;;;9.10
68127;BMP180;54931;52.098;21.006;2023-10-09T14:07:16;100411.20;;;9.12
68127;BMP180;54931;52.098;21.006;2023-10-09T14:09:44;100415.00;;;9.20
68127;BMP180;54931;52.098;21.006;2023-10-09T14:12:35;100409.40;;;9.20
68127;BMP180;54931;52.098;21.006;2023-10-09T14:15:08;100404.00;;;9.24
68127;BMP180;54931;52.098;21.006;2023-10-09T14:17:44;100409.00;;;9.20
68127;BMP180;54931;52.098;21.006;2023-10-09T14:20:14;100419.60;;;9.20
68127;BMP180;54931;52.098;21.006;2023-10-09T14:23:02;100420.40;;;9.20
68127;BMP180;54931;52.098;21.006;2023-10-09T14:25:35;100422.20;;;9.20
68127;BMP180;54931;52.098;21.006;2023-10-09T14:28:09;100421.80;;;9.20
68127;BMP180;54931;52.098;21.006;2023-10-09T14:30:38;100417.60;;;9.20
68127;BMP180;54931;52.098;21.006;2023-10-09T14:33:13;100411.00;;;9.10
68127;BMP180;54931;52.098;21.006;2023-10-09T14:35:41;100410.20;;;9.00
68127;BMP180;54931;52.098;21.006;2023-10-09T14:38:09;100419.20;;;8.94
68127;BMP180;54931;52.098;21.006;2023-10-09T14:40:45;100414.60;;;8.90
68127;BMP180;54931;52.098;21.006;2023-10-09T14:43:12;100414.00;;;8.86
68127;BMP180;54931;52.098;21.006;2023-10-09T14:45:55;100414.60;;;8.80
68127;BMP180;54931;52.098;21.006;2023-10-09T14:48:23;100415.60;;;8.74
68127;BMP180;54931;52.098;21.006;2023-10-09T14:50:53;100418.20;;;8.70
68127;BMP180;54931;52.098;21.006;2023-10-09T14:53:21;100414.60;;;8.60